This is the latest recevied weather packets stored in our database for station/object N7WSS. If no packets are shown the sender has not sent any weather packets the latest 10 day(s).
| Time | Temp. | Humidity | Pressure | Rain* | Wind** | Luminosity | Snow |
|---|---|---|---|---|---|---|---|
| 1788472828 | 32.78° C | 43% | 1011.7 hPa | 0 mm | - | - | - |
| 1788472522 | 33.33° C | 44% | 1011.9 hPa | 0 mm | - | - | - |
| 1788472222 | 33.33° C | 43% | 1012 hPa | 0 mm | - | - | - |
| 1788471922 | 33.33° C | 42% | 1011.8 hPa | 0 mm | - | - | - |
| 1788471622 | 33.33° C | 44% | 1011.9 hPa | 0 mm | - | - | - |
| 1788471317 | 34.44° C | 41% | 1011.9 hPa | 0 mm | - | - | - |
| 1788471013 | 34.44° C | 41% | 1012.1 hPa | 0 mm | - | - | - |
| 1788470708 | 34.44° C | 41% | 1012 hPa | 0 mm | - | - | - |
| 1788470403 | 32.78° C | 42% | 1012.3 hPa | 0 mm | - | - | - |
| 1788470098 | 32.22° C | 45% | 1012 hPa | 0 mm | - | - | - |
| 1788469795 | 33.33° C | 43% | 1012.3 hPa | 0 mm | - | - | - |
| 1788469494 | 32.78° C | 43% | 1012.1 hPa | 0 mm | - | - | - |
| 1788469190 | 32.78° C | 43% | 1012.6 hPa | 0 mm | - | - | - |
| 1788468884 | 33.33° C | 43% | 1012.6 hPa | 0 mm | - | - | - |
| 1788468578 | 32.78° C | 42% | 1012.7 hPa | 0 mm | - | - | - |
| 1788468275 | 32.78° C | 43% | 1012.7 hPa | 0 mm | - | - | - |
| 1788467970 | 32.22° C | 44% | 1012.7 hPa | 0 mm | - | - | - |
| 1788467666 | 31.67° C | 46% | 1012.7 hPa | 0 mm | - | - | - |
| 1788467365 | 31.67° C | 45% | 1012.9 hPa | 0 mm | - | - | - |
| 1788467074 | 31.11° C | 46% | 1013 hPa | 0 mm | - | - | - |
| 1788466761 | 31.11° C | 47% | 1013.1 hPa | 0 mm | - | - | - |
| 1788466457 | 31.11° C | 46% | 1013 hPa | 0 mm | - | - | - |
| 1788466155 | 31.11° C | 47% | 1013 hPa | 0 mm | - | - | - |
| 1788465850 | 30.56° C | 48% | 1013.3 hPa | 0 mm | - | - | - |
| 1788465546 | 31.11° C | 47% | 1013.2 hPa | 0 mm | - | - | - |
* Rain latest hour (hover to see other rain measurements)
** Current wind speed in m/s (hover to see current wind gust speed)